Time;durP1;ratioP1;P1;durP2;ratioP2;P2;SDS_P1;SDS_P2;PMS_P1;PMS_P2;Temp;Humidity;BMP_temperature;BMP_pressure;BME280_temperature;BME280_humidity;BME280_pressure;Samples;Min_cycle;Max_cycle;Signal;HPM_P1;HPM_P2
2023/09/26 00:00:09;;;;;;;3.05;2.03;;;16.60;54.30;;;;;;5020294;28;20486;-52
2023/09/26 00:02:36;;;;;;;3.80;2.40;;;16.50;54.20;;;;;;5020729;28;20057;-52
2023/09/26 00:05:08;;;;;;;3.47;1.90;;;16.50;54.20;;;;;;5021431;28;20060;-51
2023/09/26 00:07:36;;;;;;;8.85;2.40;;;16.50;54.20;;;;;;5021400;28;20050;-52
2023/09/26 00:10:05;;;;;;;3.75;2.20;;;16.50;54.30;;;;;;5021415;28;20050;-52
2023/09/26 00:12:34;;;;;;;5.25;2.50;;;16.50;54.30;;;;;;5022015;28;20049;-48
2023/09/26 00:15:02;;;;;;;3.08;1.80;;;16.40;54.30;;;;;;5021460;28;20065;-50
2023/09/26 00:17:29;;;;;;;5.57;2.20;;;16.50;54.40;;;;;;5019488;28;20049;-53
2023/09/26 00:19:57;;;;;;;2.88;1.98;;;16.40;54.40;;;;;;5021457;28;20049;-49
2023/09/26 00:22:25;;;;;;;3.78;2.30;;;16.40;54.40;;;;;;5018880;28;20069;-51
2023/09/26 00:24:52;;;;;;;3.38;2.08;;;16.40;54.50;;;;;;5022229;28;20045;-51
2023/09/26 00:27:20;;;;;;;5.82;1.83;;;16.30;54.40;;;;;;5020171;28;20475;-50
2023/09/26 00:32:19;;;;;;;5.53;2.30;;;16.30;55.00;;;;;;5020873;28;20056;-51
2023/09/26 00:34:46;;;;;;;3.70;1.95;;;16.30;54.50;;;;;;5025476;28;21080;-51
2023/09/26 00:37:13;;;;;;;3.22;2.05;;;16.30;54.50;;;;;;5023645;28;20054;-53
2023/09/26 00:39:41;;;;;;;3.40;2.08;;;16.30;54.60;;;;;;5023666;28;20061;-52
2023/09/26 00:42:08;;;;;;;4.32;2.40;;;16.20;54.60;;;;;;5024844;28;20054;-55
2023/09/26 00:44:35;;;;;;;4.43;2.13;;;16.20;54.60;;;;;;5024167;28;20054;-54
2023/09/26 00:47:03;;;;;;;4.35;2.28;;;16.20;54.70;;;;;;5023290;28;20049;-55
2023/09/26 00:49:31;;;;;;;3.63;2.33;;;16.20;54.70;;;;;;5023717;28;20049;-52
2023/09/26 00:52:01;;;;;;;4.03;2.10;;;16.20;54.70;;;;;;5025468;28;20049;-51
2023/09/26 00:54:29;;;;;;;3.35;2.25;;;16.20;54.70;;;;;;5023466;28;20061;-54
2023/09/26 00:56:57;;;;;;;4.07;2.40;;;16.10;54.60;;;;;;5023975;28;20048;-54
2023/09/26 00:59:25;;;;;;;3.20;2.28;;;16.10;55.10;;;;;;5024043;28;20522;-55
2023/09/26 01:01:53;;;;;;;5.80;2.58;;;16.10;54.60;;;;;;5022308;28;20393;-55
2023/09/26 01:04:20;;;;;;;3.10;2.10;;;16.10;54.70;;;;;;5024835;28;20405;-55
2023/09/26 01:06:49;;;;;;;3.83;2.40;;;16.00;54.60;;;;;;5025328;28;20481;-53
2023/09/26 01:09:17;;;;;;;4.22;2.38;;;16.00;54.70;;;;;;5023538;28;20049;-53
2023/09/26 01:11:44;;;;;;;3.28;2.05;;;16.00;54.70;;;;;;5024714;28;20421;-54
2023/09/26 01:14:12;;;;;;;3.45;2.20;;;16.00;54.70;;;;;;5023662;28;20049;-52
2023/09/26 01:16:40;;;;;;;4.45;2.50;;;15.90;54.80;;;;;;5023864;28;20064;-54
2023/09/26 01:19:07;;;;;;;4.18;2.40;;;15.90;54.80;;;;;;5024020;28;20056;-53
2023/09/26 01:21:34;;;;;;;4.30;2.10;;;15.90;54.80;;;;;;5024508;28;20143;-54
2023/09/26 01:24:04;;;;;;;3.78;2.30;;;15.90;54.90;;;;;;5023326;28;20061;-52
2023/09/26 01:26:36;;;;;;;3.53;2.25;;;15.80;54.90;;;;;;5024299;28;20053;-52
2023/09/26 01:29:03;;;;;;;3.42;2.05;;;15.80;55.00;;;;;;5023959;28;20421;-54
2023/09/26 01:31:31;;;;;;;3.67;2.35;;;15.80;55.00;;;;;;5020462;28;20061;-53
2023/09/26 01:33:58;;;;;;;5.05;2.65;;;15.80;55.10;;;;;;5023031;28;20057;-51
2023/09/26 01:36:27;;;;;;;4.53;2.47;;;15.80;55.10;;;;;;5023722;28;20053;-49
2023/09/26 01:38:54;;;;;;;5.50;1.98;;;15.80;55.30;;;;;;5021466;28;20480;-52
2023/09/26 01:41:24;;;;;;;3.22;2.28;;;15.70;55.10;;;;;;5020796;28;20057;-53
2023/09/26 01:43:51;;;;;;;4.25;2.60;;;15.80;55.10;;;;;;5022350;28;20053;-54
2023/09/26 01:46:20;;;;;;;4.10;2.35;;;15.70;55.10;;;;;;5020909;28;20536;-54
2023/09/26 01:48:47;;;;;;;2.95;1.92;;;15.70;55.10;;;;;;5022693;28;20053;-52
2023/09/26 01:51:15;;;;;;;3.97;2.35;;;15.70;55.10;;;;;;5021380;28;20049;-48
2023/09/26 01:53:42;;;;;;;4.40;2.50;;;15.70;55.20;;;;;;5023554;28;20500;-48
2023/09/26 01:56:09;;;;;;;3.40;2.35;;;15.70;55.20;;;;;;5021914;28;20537;-50
2023/09/26 01:58:38;;;;;;;3.08;2.20;;;15.60;55.10;;;;;;5022429;28;20057;-51
2023/09/26 02:01:05;;;;;;;4.18;2.45;;;15.60;55.60;;;;;;5020752;28;20084;-46
2023/09/26 02:03:33;;;;;;;4.07;2.40;;;15.60;55.20;;;;;;5022091;28;20065;-48
2023/09/26 02:06:01;;;;;;;3.35;2.20;;;15.60;55.20;;;;;;5023429;28;20401;-51
2023/09/26 02:08:28;;;;;;;2.75;2.08;;;15.60;55.20;;;;;;5022395;28;20053;-49
2023/09/26 02:10:55;;;;;;;4.93;2.78;;;15.60;55.20;;;;;;5021808;28;20497;-47
2023/09/26 02:13:24;;;;;;;3.47;2.20;;;15.50;55.20;;;;;;5022592;28;20386;-52
2023/09/26 02:15:54;;;;;;;2.90;2.15;;;15.50;55.30;;;;;;5020976;28;20493;-49
2023/09/26 02:18:21;;;;;;;4.18;2.58;;;15.50;55.30;;;;;;5022028;28;20057;-48
2023/09/26 02:20:48;;;;;;;3.45;2.13;;;15.50;55.30;;;;;;5022165;28;20061;-49
2023/09/26 02:23:15;;;;;;;3.88;2.25;;;15.50;55.30;;;;;;5022021;28;20404;-48
2023/09/26 02:25:51;;;;;;;3.88;2.08;;;15.50;55.80;;;;;;5021291;28;20464;-48
2023/09/26 02:28:19;;;;;;;3.95;2.47;;;15.40;55.30;;;;;;5021500;28;20485;-49
2023/09/26 02:30:47;;;;;;;3.13;2.20;;;15.40;55.30;;;;;;5020562;28;20527;-47
2023/09/26 02:33:16;;;;;;;3.40;2.33;;;15.40;55.30;;;;;;5020497;28;20049;-45
2023/09/26 02:35:43;;;;;;;4.28;2.90;;;15.40;55.40;;;;;;5021653;28;20052;-49
2023/09/26 02:38:10;;;;;;;5.47;2.35;;;15.40;55.40;;;;;;5022300;28;20049;-49
2023/09/26 02:40:37;;;;;;;4.85;2.90;;;15.40;55.40;;;;;;5020797;28;20057;-51
2023/09/26 02:43:05;;;;;;;3.80;2.58;;;15.40;55.50;;;;;;5022087;28;20054;-52
2023/09/26 02:45:32;;;;;;;4.00;2.50;;;15.40;55.50;;;;;;5021480;28;20056;-50
2023/09/26 02:48:00;;;;;;;4.07;2.80;;;15.30;55.50;;;;;;5025725;28;20049;-47
2023/09/26 02:50:28;;;;;;;4.50;2.60;;;15.30;55.60;;;;;;5024882;28;20095;-46
2023/09/26 02:52:57;;;;;;;3.67;2.20;;;15.30;55.60;;;;;;5024453;28;20049;-49
2023/09/26 02:55:24;;;;;;;4.60;2.65;;;15.30;55.60;;;;;;5025921;28;20064;-49
2023/09/26 02:57:52;;;;;;;3.90;2.72;;;15.30;55.70;;;;;;5025054;28;20064;-49
2023/09/26 03:00:20;;;;;;;4.97;3.08;;;15.30;55.70;;;;;;5024336;28;20057;-50
2023/09/26 03:02:47;;;;;;;4.53;2.70;;;15.30;55.70;;;;;;5023980;28;20050;-48
2023/09/26 03:05:15;;;;;;;3.70;2.40;;;15.30;55.80;;;;;;5024628;28;20050;-51
2023/09/26 03:07:44;;;;;;;4.28;2.78;;;15.20;55.70;;;;;;5023586;28;20057;-50
2023/09/26 03:10:11;;;;;;;4.63;2.92;;;15.20;56.30;;;;;;5024591;28;20053;-52
2023/09/26 03:12:43;;;;;;;3.08;2.20;;;15.20;55.80;;;;;;5024061;28;20052;-52
2023/09/26 03:15:11;;;;;;;3.58;2.72;;;15.20;55.80;;;;;;5023932;28;20049;-47
2023/09/26 03:17:38;;;;;;;5.68;2.78;;;15.20;55.80;;;;;;5024821;28;20053;-54
2023/09/26 03:20:08;;;;;;;3.47;2.20;;;15.20;55.80;;;;;;5023877;28;20056;-48
2023/09/26 03:22:35;;;;;;;4.68;2.50;;;15.20;55.80;;;;;;5024807;28;20049;-51
2023/09/26 03:25:05;;;;;;;4.90;3.05;;;15.20;55.90;;;;;;5025479;28;20052;-51
2023/09/26 03:27:32;;;;;;;3.83;2.58;;;15.10;55.90;;;;;;5024549;28;20056;-51
2023/09/26 03:29:59;;;;;;;3.53;2.70;;;15.10;55.90;;;;;;5023104;28;20539;-46
2023/09/26 03:32:28;;;;;;;4.07;2.65;;;15.10;55.90;;;;;;5025094;28;20056;-50
2023/09/26 03:34:55;;;;;;;3.30;2.50;;;15.10;55.90;;;;;;5023957;28;20636;-50
2023/09/26 03:37:23;;;;;;;3.60;2.55;;;15.10;55.90;;;;;;5024592;28;20520;-46
2023/09/26 03:39:50;;;;;;;3.25;2.70;;;15.10;56.00;;;;;;5024743;28;20053;-50
2023/09/26 03:42:19;;;;;;;4.28;2.97;;;15.00;55.90;;;;;;5024420;28;21518;-48
2023/09/26 03:44:46;;;;;;;4.57;2.80;;;15.00;55.90;;;;;;5021476;28;20587;-49
2023/09/26 03:47:14;;;;;;;4.95;2.60;;;15.00;56.00;;;;;;5023708;28;20057;-49
2023/09/26 03:49:41;;;;;;;4.55;2.85;;;15.00;56.00;;;;;;5023583;28;20045;-49
2023/09/26 03:52:08;;;;;;;5.20;3.22;;;15.00;56.00;;;;;;5024422;28;20045;-50
2023/09/26 03:54:36;;;;;;;4.22;3.03;;;15.00;56.10;;;;;;5024623;28;20049;-47
2023/09/26 03:57:04;;;;;;;3.70;2.85;;;15.00;56.10;;;;;;5023954;28;20056;-48
2023/09/26 03:59:34;;;;;;;5.15;3.28;;;15.00;56.10;;;;;;5025354;28;20057;-50
2023/09/26 04:02:01;;;;;;;4.15;2.80;;;15.00;56.10;;;;;;5023957;28;20393;-54
2023/09/26 04:04:31;;;;;;;3.45;2.42;;;14.90;56.00;;;;;;5023992;28;20046;-49
2023/09/26 04:06:59;;;;;;;4.07;2.88;;;14.90;56.00;;;;;;5024375;28;20053;-52
2023/09/26 04:09:26;;;;;;;4.03;2.40;;;14.90;56.00;;;;;;5023913;28;20539;-52
2023/09/26 04:11:53;;;;;;;6.78;2.97;;;14.90;56.00;;;;;;5023058;28;20083;-55
2023/09/26 04:14:20;;;;;;;5.40;2.97;;;14.90;56.00;;;;;;5023405;28;20053;-51
2023/09/26 04:16:49;;;;;;;8.55;3.72;;;14.80;56.00;;;;;;5024432;28;20056;-54
2023/09/26 04:19:17;;;;;;;4.95;2.80;;;14.80;56.00;;;;;;5023538;28;20068;-51
2023/09/26 04:21:45;;;;;;;3.80;2.63;;;14.80;56.00;;;;;;5024242;28;20060;-53
2023/09/26 04:24:12;;;;;;;4.15;2.65;;;14.80;56.00;;;;;;5022103;28;20056;-52
2023/09/26 04:26:39;;;;;;;3.67;2.60;;;14.80;56.10;;;;;;5023778;28;20053;-53
2023/09/26 04:29:06;;;;;;;5.35;3.25;;;14.80;56.10;;;;;;5021834;28;20079;-51
2023/09/26 04:31:34;;;;;;;4.82;3.40;;;14.80;56.10;;;;;;5021442;28;20053;-52
2023/09/26 04:34:03;;;;;;;6.45;3.33;;;14.70;56.10;;;;;;5022758;28;20045;-54
2023/09/26 04:36:30;;;;;;;5.95;3.33;;;14.70;56.10;;;;;;5020825;28;20064;-52
2023/09/26 04:38:57;;;;;;;4.20;2.90;;;14.70;56.10;;;;;;5022086;28;20120;-52
2023/09/26 04:41:24;;;;;;;5.75;3.10;;;14.70;56.10;;;;;;5022125;28;20393;-53
2023/09/26 04:43:52;;;;;;;5.22;3.05;;;14.70;56.20;;;;;;5020664;28;20511;-50
2023/09/26 04:46:19;;;;;;;4.32;3.10;;;14.70;56.20;;;;;;5021617;28;20408;-53
2023/09/26 04:48:47;;;;;;;2.70;2.47;;;14.70;56.20;;;;;;5020878;28;20060;-51
2023/09/26 04:51:16;;;;;;;4.28;3.08;;;14.70;56.30;;;;;;5020771;28;20053;-50
2023/09/26 04:53:43;;;;;;;4.40;3.20;;;14.60;56.30;;;;;;5022655;28;20072;-54
2023/09/26 04:56:11;;;;;;;18.77;8.50;;;14.60;56.40;;;;;;5021856;28;20508;-52
2023/09/26 04:58:38;;;;;;;6.75;4.05;;;14.60;56.40;;;;;;5022910;28;20519;-55
2023/09/26 05:01:13;;;;;;;6.47;3.60;;;14.60;56.40;;;;;;5020531;28;20512;-55
2023/09/26 05:03:41;;;;;;;4.45;3.45;;;14.60;56.60;;;;;;5021349;28;20167;-54
2023/09/26 05:06:09;;;;;;;6.05;3.40;;;14.60;56.50;;;;;;5022618;28;20045;-55
2023/09/26 05:08:38;;;;;;;4.38;2.92;;;14.60;56.50;;;;;;5022107;28;20065;-54
2023/09/26 05:11:05;;;;;;;5.85;3.75;;;14.60;56.60;;;;;;5021522;28;20056;-49
2023/09/26 05:13:32;;;;;;;5.47;3.28;;;14.60;56.60;;;;;;5022717;28;20314;-54
2023/09/26 05:16:00;;;;;;;5.50;2.95;;;14.60;56.60;;;;;;5021338;28;20049;-53
2023/09/26 05:18:27;;;;;;;4.22;3.45;;;14.60;56.70;;;;;;5021435;28;20497;-55
2023/09/26 05:20:55;;;;;;;4.63;3.05;;;14.50;56.60;;;;;;5021128;28;20052;-54
2023/09/26 05:23:22;;;;;;;4.63;3.47;;;14.60;56.70;;;;;;5022851;28;20057;-54
2023/09/26 05:25:51;;;;;;;4.60;3.30;;;14.60;57.20;;;;;;5022043;28;20060;-54
2023/09/26 05:28:18;;;;;;;7.88;3.35;;;14.60;56.80;;;;;;5022932;28;20049;-52
2023/09/26 05:30:46;;;;;;;5.60;3.70;;;14.60;56.80;;;;;;5020976;28;21200;-50
2023/09/26 05:33:14;;;;;;;5.22;3.30;;;14.60;56.80;;;;;;5022328;28;20053;-50
2023/09/26 05:35:41;;;;;;;4.60;3.17;;;14.60;56.80;;;;;;5020380;28;20053;-52
2023/09/26 05:38:08;;;;;;;5.07;3.33;;;14.50;56.70;;;;;;5021632;28;20053;-54
2023/09/26 05:40:36;;;;;;;5.22;3.22;;;14.50;56.80;;;;;;5021691;28;20056;-54
2023/09/26 05:43:05;;;;;;;5.10;3.05;;;14.50;56.80;;;;;;5021075;28;20050;-56
2023/09/26 05:45:32;;;;;;;4.78;3.30;;;14.50;56.80;;;;;;5022266;28;20057;-53
2023/09/26 05:48:00;;;;;;;4.03;3.15;;;14.50;56.90;;;;;;5021950;28;20053;-55
2023/09/26 05:50:27;;;;;;;5.20;3.42;;;14.50;56.90;;;;;;5021869;28;20493;-53
2023/09/26 05:52:55;;;;;;;5.93;3.15;;;14.50;57.00;;;;;;5020400;28;20052;-54
2023/09/26 05:55:22;;;;;;;5.82;3.10;;;14.50;57.00;;;;;;5020666;28;20057;-52
2023/09/26 05:57:49;;;;;;;3.45;2.80;;;14.60;57.00;;;;;;5020909;28;20053;-52
2023/09/26 06:00:18;;;;;;;5.45;3.67;;;14.60;57.10;;;;;;5019166;28;20053;-55
2023/09/26 06:02:45;;;;;;;4.88;3.65;;;14.50;57.00;;;;;;5021232;28;20057;-55
2023/09/26 06:05:13;;;;;;;5.03;3.55;;;14.50;57.10;;;;;;5021074;28;20489;-54
2023/09/26 06:07:40;;;;;;;8.48;3.80;;;14.60;57.10;;;;;;5021655;28;20049;-53
2023/09/26 06:10:11;;;;;;;5.10;3.38;;;14.60;57.20;;;;;;5019912;28;20052;-54
2023/09/26 06:12:38;;;;;;;5.50;3.17;;;14.60;57.20;;;;;;5021697;28;20404;-52
2023/09/26 06:15:07;;;;;;;6.65;3.58;;;14.60;57.20;;;;;;5020608;28;20052;-54
2023/09/26 06:17:36;;;;;;;4.85;3.38;;;14.60;57.30;;;;;;5020785;28;20046;-52
2023/09/26 06:20:07;;;;;;;3.20;2.38;;;14.60;57.30;;;;;;5022016;28;20052;-50
2023/09/26 06:22:34;;;;;;;3.92;3.03;;;14.60;57.30;;;;;;5026114;28;20053;-55
2023/09/26 06:25:04;;;;;;;6.28;3.20;;;14.60;57.40;;;;;;5025360;28;20057;-54
2023/09/26 06:27:34;;;;;;;5.63;3.20;;;14.70;57.40;;;;;;5024802;28;20408;-55
2023/09/26 06:30:04;;;;;;;6.63;3.05;;;14.70;57.50;;;;;;5024074;28;20337;-53
2023/09/26 06:32:31;;;;;;;5.40;3.00;;;14.60;57.40;;;;;;5023647;28;20519;-55
2023/09/26 06:35:01;;;;;;;5.75;3.22;;;14.70;57.50;;;;;;5025797;28;20500;-52
2023/09/26 06:37:28;;;;;;;5.88;3.25;;;14.70;57.60;;;;;;5025753;28;20045;-52
2023/09/26 06:40:00;;;;;;;4.13;3.15;;;14.70;57.60;;;;;;5026096;28;20059;-54
2023/09/26 06:42:29;;;;;;;4.78;3.60;;;14.80;57.70;;;;;;5024154;28;20061;-55
2023/09/26 06:44:56;;;;;;;5.13;3.22;;;14.80;57.60;;;;;;5025379;28;20049;-55
2023/09/26 06:47:24;;;;;;;4.95;3.58;;;14.80;57.70;;;;;;5022530;28;20057;-55
2023/09/26 06:49:52;;;;;;;5.90;3.20;;;14.90;57.70;;;;;;5024688;28;20053;-52
2023/09/26 06:52:22;;;;;;;4.22;3.30;;;14.90;57.70;;;;;;5025751;28;20421;-52
2023/09/26 06:54:50;;;;;;;4.13;3.30;;;14.90;57.70;;;;;;5024024;28;20053;-54
2023/09/26 06:57:20;;;;;;;4.25;3.33;;;14.90;57.70;;;;;;5024777;28;20064;-55
2023/09/26 06:59:49;;;;;;;4.97;3.50;;;15.00;57.80;;;;;;5022543;28;20057;-55
2023/09/26 07:02:17;;;;;;;5.35;3.65;;;15.00;57.80;;;;;;5023435;28;20053;-53
2023/09/26 07:04:45;;;;;;;5.93;3.00;;;15.00;57.80;;;;;;5024199;28;20052;-53
2023/09/26 07:07:14;;;;;;;5.15;2.70;;;15.00;57.80;;;;;;5024448;28;20049;-51
2023/09/26 07:09:43;;;;;;;7.05;3.25;;;15.10;57.90;;;;;;5024205;28;20412;-53
2023/09/26 07:12:10;;;;;;;5.22;3.38;;;15.10;57.90;;;;;;5023241;28;20049;-51
2023/09/26 07:14:38;;;;;;;6.03;3.25;;;15.10;57.90;;;;;;5024745;28;20053;-54
2023/09/26 07:17:05;;;;;;;6.25;4.13;;;15.10;57.90;;;;;;5023721;28;20049;-54
2023/09/26 07:19:33;;;;;;;5.60;3.38;;;15.20;58.10;;;;;;5023964;28;20056;-53
2023/09/26 07:22:00;;;;;;;4.65;2.88;;;15.20;58.00;;;;;;5025035;28;20072;-53
2023/09/26 07:24:27;;;;;;;3.78;3.03;;;15.20;58.00;;;;;;5024505;28;20053;-55
2023/09/26 07:26:56;;;;;;;5.00;2.95;;;15.30;58.10;;;;;;5024438;28;20049;-54
2023/09/26 07:29:24;;;;;;;3.70;2.70;;;15.30;58.10;;;;;;5024607;28;20061;-50
2023/09/26 07:31:52;;;;;;;5.97;3.28;;;15.30;58.10;;;;;;5021748;28;20052;-54
2023/09/26 07:34:20;;;;;;;4.72;3.03;;;15.40;58.10;;;;;;5024720;28;20057;-52
2023/09/26 07:36:47;;;;;;;4.75;3.13;;;15.40;58.20;;;;;;5024513;28;20508;-52
2023/09/26 07:39:17;;;;;;;5.43;2.92;;;15.40;58.30;;;;;;5024639;28;20049;-55
2023/09/26 07:41:45;;;;;;;5.43;2.95;;;15.50;58.30;;;;;;5022942;28;20053;-56
2023/09/26 07:44:14;;;;;;;6.15;3.25;;;15.50;58.30;;;;;;5023368;28;20045;-54
2023/09/26 07:46:41;;;;;;;5.18;2.83;;;15.60;58.40;;;;;;5021494;28;20084;-55
2023/09/26 07:49:09;;;;;;;4.32;3.03;;;15.60;58.40;;;;;;5024375;28;20064;-53
2023/09/26 07:51:36;;;;;;;4.60;2.95;;;15.60;58.50;;;;;;5024225;28;20509;-55
2023/09/26 07:54:04;;;;;;;4.63;2.40;;;15.70;58.60;;;;;;5022549;28;20053;-56
2023/09/26 07:56:31;;;;;;;3.88;2.42;;;15.70;58.60;;;;;;5023891;28;20057;-55
2023/09/26 07:58:58;;;;;;;4.15;2.90;;;15.70;58.70;;;;;;5021966;28;20068;-54
2023/09/26 08:01:27;;;;;;;5.07;2.70;;;15.80;58.70;;;;;;5023085;28;20053;-54
2023/09/26 08:03:55;;;;;;;3.33;2.38;;;15.80;58.70;;;;;;5023554;28;20092;-53
2023/09/26 08:06:22;;;;;;;5.32;2.97;;;15.80;58.70;;;;;;5024157;28;20442;-53
2023/09/26 08:08:49;;;;;;;6.85;3.03;;;15.90;58.90;;;;;;5025570;28;20613;-55
2023/09/26 08:11:16;;;;;;;2.63;2.25;;;16.00;59.10;;;;;;5024609;28;20053;-54
2023/09/26 08:13:44;;;;;;;3.58;2.40;;;16.00;59.00;;;;;;5024024;28;20053;-52
2023/09/26 08:16:11;;;;;;;4.05;2.78;;;16.00;59.00;;;;;;5023268;28;20049;-54
2023/09/26 08:18:39;;;;;;;7.65;2.95;;;16.10;59.00;;;;;;5022870;28;20425;-52
2023/09/26 08:21:07;;;;;;;4.72;2.90;;;16.10;59.00;;;;;;5022657;28;20424;-53
2023/09/26 08:23:34;;;;;;;4.05;2.72;;;16.20;59.10;;;;;;5023560;28;20065;-55
2023/09/26 08:26:03;;;;;;;4.18;2.92;;;16.20;59.10;;;;;;5022323;28;20420;-54
2023/09/26 08:28:31;;;;;;;7.78;3.20;;;16.30;59.20;;;;;;5022121;28;20064;-51
2023/09/26 08:31:05;;;;;;;4.40;2.90;;;16.30;59.30;;;;;;5021768;28;20444;-53
2023/09/26 08:33:32;;;;;;;5.83;2.97;;;16.40;59.40;;;;;;5021336;28;20065;-53
2023/09/26 08:36:01;;;;;;;4.65;2.80;;;16.40;59.50;;;;;;5022468;28;20413;-53
2023/09/26 08:38:29;;;;;;;3.95;2.65;;;16.50;59.60;;;;;;5021713;28;20053;-54
2023/09/26 08:40:58;;;;;;;3.20;2.60;;;16.60;59.70;;;;;;5023447;28;20057;-53
2023/09/26 08:43:27;;;;;;;5.60;2.88;;;16.60;59.90;;;;;;5022823;28;20045;-51
2023/09/26 08:45:54;;;;;;;3.63;2.47;;;16.70;59.90;;;;;;5021970;28;20133;-56
2023/09/26 08:48:22;;;;;;;3.40;2.42;;;16.80;60.00;;;;;;5020999;28;20053;-51
2023/09/26 08:50:50;;;;;;;5.10;2.55;;;16.90;60.00;;;;;;5019801;28;20064;-54
2023/09/26 08:53:18;;;;;;;5.93;2.35;;;16.90;60.00;;;;;;5023114;28;20050;-53
2023/09/26 08:55:46;;;;;;;3.22;2.25;;;17.00;60.00;;;;;;5021665;28;20483;-56
2023/09/26 08:58:15;;;;;;;3.78;2.35;;;17.00;59.90;;;;;;5021113;28;20493;-54
2023/09/26 09:00:43;;;;;;;5.50;2.60;;;17.10;60.00;;;;;;5022371;28;20053;-53
2023/09/26 09:03:11;;;;;;;3.78;2.20;;;17.20;60.20;;;;;;5022887;28;20053;-52
2023/09/26 09:05:39;;;;;;;4.53;2.65;;;17.30;60.40;;;;;;5022650;28;20057;-55
2023/09/26 09:08:06;;;;;;;3.15;2.35;;;17.30;60.30;;;;;;5024010;28;20049;-56
2023/09/26 09:10:48;;;;;;;5.03;2.40;;;17.50;60.40;;;;;;5021729;28;20057;-55
2023/09/26 09:13:26;;;;;;;3.47;2.30;;;17.50;60.40;;;;;;5021815;28;20057;-54
2023/09/26 09:16:10;;;;;;;8.77;2.38;;;17.60;60.20;;;;;;5020956;28;20049;-52
2023/09/26 09:18:38;;;;;;;4.00;2.25;;;17.70;60.10;;;;;;5022778;28;20540;-54
2023/09/26 09:21:24;;;;;;;3.45;2.10;;;17.80;59.90;;;;;;5022458;28;20064;-53
2023/09/26 09:23:53;;;;;;;11.85;2.72;;;17.90;59.80;;;;;;5021401;28;20049;-54
2023/09/26 09:26:22;;;;;;;6.50;2.67;;;17.90;59.70;;;;;;5021544;28;20556;-56
2023/09/26 09:28:52;;;;;;;3.22;2.17;;;18.00;59.70;;;;;;5021317;28;20057;-52
2023/09/26 09:31:22;;;;;;;3.33;2.20;;;18.10;59.60;;;;;;5019689;28;20233;-54
2023/09/26 09:33:52;;;;;;;5.97;2.50;;;18.10;59.50;;;;;;5022162;28;20054;-53
2023/09/26 09:36:20;;;;;;;3.50;2.22;;;18.20;59.60;;;;;;5022155;28;20060;-53
2023/09/26 09:38:47;;;;;;;6.15;2.65;;;18.30;59.50;;;;;;5021034;28;20604;-52
2023/09/26 09:41:14;;;;;;;3.47;2.13;;;18.40;59.50;;;;;;5020085;28;20497;-52
2023/09/26 09:43:43;;;;;;;3.22;2.20;;;18.40;59.50;;;;;;5021320;28;20052;-54
2023/09/26 09:46:12;;;;;;;4.35;2.63;;;18.50;59.30;;;;;;5020604;28;20505;-53
2023/09/26 09:48:43;;;;;;;4.40;2.47;;;18.60;59.10;;;;;;5021344;28;20049;-49
2023/09/26 09:51:13;;;;;;;5.90;2.67;;;18.60;58.80;;;;;;5021957;28;20492;-53
2023/09/26 09:53:43;;;;;;;2.97;2.28;;;18.70;58.70;;;;;;5022951;28;20053;-54
2023/09/26 09:56:18;;;;;;;6.65;2.38;;;18.80;58.40;;;;;;5021758;28;20079;-49
2023/09/26 09:58:50;;;;;;;2.88;2.10;;;18.80;58.20;;;;;;5022241;28;20564;-50
2023/09/26 10:01:20;;;;;;;3.75;2.20;;;18.90;58.70;;;;;;5020571;28;20053;-49
2023/09/26 10:03:49;;;;;;;4.90;1.80;;;18.90;58.20;;;;;;5020200;28;20053;-46
2023/09/26 10:06:17;;;;;;;5.75;2.30;;;19.00;58.20;;;;;;5021266;28;20049;-50
2023/09/26 10:08:46;;;;;;;5.07;2.17;;;19.00;58.30;;;;;;5022585;28;20060;-49
2023/09/26 10:11:14;;;;;;;3.80;2.47;;;19.10;58.20;;;;;;5021163;28;20054;-46
2023/09/26 10:13:41;;;;;;;4.65;2.55;;;19.10;58.10;;;;;;5022059;28;20131;-48
2023/09/26 10:16:14;;;;;;;4.47;2.42;;;19.20;58.10;;;;;;5019685;28;20057;-48
2023/09/26 10:18:44;;;;;;;3.35;2.30;;;19.30;58.20;;;;;;5020563;28;20060;-47
2023/09/26 10:21:21;;;;;;;2.72;2.25;;;19.30;58.10;;;;;;5022493;28;20057;-63
2023/09/26 10:24:22;;;;;;;4.10;2.42;;;19.40;58.10;;;;;;5021134;28;20053;-56
2023/09/26 10:26:50;;;;;;;3.72;2.30;;;19.40;58.20;;;;;;5021393;28;20048;-56
2023/09/26 10:29:26;;;;;;;3.50;1.92;;;19.50;58.20;;;;;;5021471;28;20076;-59
2023/09/26 10:31:58;;;;;;;3.78;2.13;;;19.60;58.40;;;;;;5019347;28;20583;-60
2023/09/26 10:34:28;;;;;;;6.85;2.35;;;19.70;58.60;;;;;;5021032;28;20556;-59
2023/09/26 10:36:56;;;;;;;5.13;2.65;;;19.80;58.50;;;;;;5021378;28;20508;-58
2023/09/26 10:39:34;;;;;;;3.85;2.10;;;19.90;58.40;;;;;;5020998;28;20053;-61
2023/09/26 10:42:09;;;;;;;5.45;2.00;;;20.00;58.20;;;;;;5020078;28;20053;-57
2023/09/26 10:44:37;;;;;;;5.30;1.95;;;20.10;58.10;;;;;;5021435;28;20053;-55
2023/09/26 10:47:07;;;;;;;7.50;2.38;;;20.20;58.20;;;;;;5019936;28;20041;-59
2023/09/26 10:49:34;;;;;;;4.35;2.03;;;20.20;58.10;;;;;;5021147;28;20142;-60
2023/09/26 10:52:02;;;;;;;8.68;2.00;;;20.30;58.00;;;;;;5020831;28;20524;-60
2023/09/26 10:54:32;;;;;;;6.75;2.38;;;20.40;57.70;;;;;;5020814;28;20049;-58
2023/09/26 10:57:00;;;;;;;7.15;2.38;;;20.40;57.70;;;;;;5022260;28;20834;-58
2023/09/26 10:59:29;;;;;;;11.52;2.40;;;20.50;57.30;;;;;;5021321;28;20504;-61
2023/09/26 11:01:57;;;;;;;9.02;2.13;;;20.60;57.20;;;;;;5020598;28;20520;-53
2023/09/26 11:04:31;;;;;;;15.60;2.30;;;20.70;57.00;;;;;;5022265;28;20611;-51
2023/09/26 11:06:58;;;;;;;3.03;2.28;;;20.70;56.80;;;;;;5021695;28;20398;-55
2023/09/26 11:09:27;;;;;;;22.23;3.35;;;20.80;56.90;;;;;;5025138;28;20064;-56
2023/09/26 11:11:56;;;;;;;15.45;2.85;;;20.80;56.70;;;;;;5023960;28;20053;-55
2023/09/26 11:14:23;;;;;;;12.77;2.53;;;20.90;56.60;;;;;;5023371;28;20058;-56
2023/09/26 11:16:51;;;;;;;5.00;2.25;;;21.00;56.40;;;;;;5023844;28;20075;-56
2023/09/26 11:19:18;;;;;;;28.58;3.30;;;21.00;56.30;;;;;;5023386;28;20501;-51
2023/09/26 11:21:49;;;;;;;43.00;4.93;;;21.10;55.90;;;;;;5023576;28;20052;-52
2023/09/26 11:24:20;;;;;;;6.30;2.42;;;21.10;55.60;;;;;;5024487;28;20445;-48
2023/09/26 11:26:48;;;;;;;14.20;2.63;;;21.20;55.50;;;;;;5023897;28;20048;-51
2023/09/26 11:29:16;;;;;;;151.57;11.55;;;21.20;55.20;;;;;;5022168;28;20049;-54
2023/09/26 11:31:44;;;;;;;15.70;3.55;;;21.30;55.10;;;;;;5022261;28;20045;-53
2023/09/26 11:34:11;;;;;;;21.35;2.50;;;21.30;55.00;;;;;;5022054;28;20057;-50
2023/09/26 11:36:40;;;;;;;9.88;1.92;;;21.40;55.10;;;;;;5024450;28;20481;-55
2023/09/26 11:39:11;;;;;;;28.25;2.85;;;21.40;54.70;;;;;;5023857;28;20057;-53
2023/09/26 11:41:38;;;;;;;6.35;2.05;;;21.50;54.40;;;;;;5025316;28;20057;-52
2023/09/26 11:44:10;;;;;;;148.98;12.63;;;21.50;54.30;;;;;;5023707;28;20064;-55
2023/09/26 11:46:42;;;;;;;72.78;6.65;;;21.60;54.00;;;;;;5021482;28;20057;-53
2023/09/26 11:49:12;;;;;;;62.23;7.53;;;21.70;53.90;;;;;;5022118;28;20515;-59
2023/09/26 11:51:40;;;;;;;9.00;2.50;;;21.70;53.80;;;;;;5024399;28;20049;-56
2023/09/26 11:54:09;;;;;;;2.42;2.00;;;21.70;53.70;;;;;;5025540;28;20058;-57
2023/09/26 11:56:36;;;;;;;4.07;1.55;;;21.80;53.50;;;;;;5025613;28;20057;-53
2023/09/26 11:59:05;;;;;;;3.63;1.80;;;21.80;53.70;;;;;;5024428;28;20053;-53
2023/09/26 12:01:33;;;;;;;3.15;1.60;;;21.90;53.70;;;;;;5024224;28;20076;-55
2023/09/26 12:04:04;;;;;;;1.83;1.50;;;21.90;53.50;;;;;;5024367;28;20053;-51
2023/09/26 12:06:31;;;;;;;4.25;1.88;;;22.00;53.50;;;;;;5025625;28;20053;-54
2023/09/26 12:08:58;;;;;;;3.35;2.25;;;22.00;53.30;;;;;;5025188;28;20532;-55
2023/09/26 12:11:27;;;;;;;5.35;1.92;;;22.00;53.10;;;;;;5024788;28;20505;-51
2023/09/26 12:13:54;;;;;;;5.57;2.25;;;22.10;53.10;;;;;;5024419;28;20073;-53
2023/09/26 12:16:21;;;;;;;3.72;2.03;;;22.10;52.70;;;;;;5023715;28;20481;-56
2023/09/26 12:18:49;;;;;;;6.90;1.90;;;22.20;52.80;;;;;;5022526;28;20518;-54
2023/09/26 12:21:17;;;;;;;5.10;1.75;;;22.20;52.70;;;;;;5025470;28;20056;-53
2023/09/26 12:23:44;;;;;;;3.60;1.70;;;22.30;52.60;;;;;;5024455;28;20068;-58
2023/09/26 12:26:11;;;;;;;4.25;2.17;;;22.30;52.40;;;;;;5025714;28;20057;-54
2023/09/26 12:28:40;;;;;;;4.38;1.80;;;22.30;52.20;;;;;;5024262;28;20053;-55
2023/09/26 12:31:07;;;;;;;4.38;1.70;;;22.30;52.00;;;;;;5022826;28;20056;-56
2023/09/26 12:33:34;;;;;;;4.50;1.27;;;22.40;52.50;;;;;;5023917;28;20497;-57
2023/09/26 12:36:01;;;;;;;3.40;1.90;;;22.40;51.90;;;;;;5024216;28;20052;-57
2023/09/26 12:38:29;;;;;;;8.20;2.03;;;22.40;52.00;;;;;;5024300;28;20057;-55
2023/09/26 14:32:22;;;;;;;3.25;1.70;;;23.70;48.60;;;;;;5019412;28;20507;-52
2023/09/26 14:34:49;;;;;;;1.85;1.40;;;23.70;49.00;;;;;;5022897;28;20068;-52
2023/09/26 14:37:17;;;;;;;2.42;1.50;;;23.70;49.00;;;;;;5021520;28;20046;-53
2023/09/26 14:39:44;;;;;;;3.88;1.70;;;23.70;49.00;;;;;;5023019;28;20489;-52
2023/09/26 14:42:11;;;;;;;3.70;1.50;;;23.70;49.10;;;;;;5024267;28;20378;-50
2023/09/26 14:44:38;;;;;;;3.75;1.80;;;23.70;49.30;;;;;;5026567;28;20417;-53